createdAt,value
2022-11-25T00:02:15.159Z,4.27
2022-11-25T00:07:19.869Z,4.97
2022-11-25T00:17:26.338Z,4.77
2022-11-25T00:22:31.025Z,4.47
2022-11-25T00:32:37.359Z,4.83
2022-11-25T00:37:41.919Z,5.20
2022-11-25T00:43:02.647Z,4.90
2022-11-25T00:48:06.497Z,5.10
2022-11-25T00:53:11.388Z,4.73
2022-11-25T00:58:14.561Z,5.33
2022-11-25T01:03:18.070Z,5.13
2022-11-25T01:08:22.844Z,4.90
2022-11-25T01:13:26.159Z,4.60
2022-11-25T01:18:29.991Z,5.37
2022-11-25T01:23:34.778Z,4.53
2022-11-25T01:33:41.472Z,5.33
2022-11-25T01:38:50.386Z,5.28
2022-11-25T01:44:08.341Z,5.30
2022-11-25T01:49:17.162Z,5.70
2022-11-25T01:54:25.581Z,5.80
2022-11-25T01:59:30.945Z,5.97
2022-11-25T02:04:37.232Z,6.13
2022-11-25T02:09:44.972Z,7.00
2022-11-25T02:14:49.854Z,7.10
2022-11-25T02:20:00.738Z,7.03
2022-11-25T02:25:12.653Z,7.77
2022-11-25T02:30:16.238Z,7.63
2022-11-25T02:35:31.996Z,7.50
2022-11-25T02:40:42.141Z,6.80
2022-11-25T02:45:52.034Z,6.90
2022-11-25T02:50:55.395Z,7.20
2022-11-25T02:56:00.812Z,7.50
2022-11-25T03:01:04.210Z,7.73
2022-11-25T03:06:07.967Z,7.67
2022-11-25T03:11:12.873Z,7.60
2022-11-25T03:16:16.255Z,7.57
2022-11-25T03:21:19.544Z,8.30
2022-11-25T03:26:26.218Z,7.63
2022-11-25T03:31:29.654Z,6.07
2022-11-25T03:36:32.970Z,6.33
2022-11-25T03:41:37.511Z,6.67
2022-11-25T03:46:40.827Z,6.82
2022-11-25T03:51:44.193Z,7.37
2022-11-25T03:56:48.787Z,7.83
2022-11-25T04:01:52.024Z,7.25
2022-11-25T04:06:55.209Z,9.00
2022-11-25T04:12:17.090Z,7.37
2022-11-25T04:17:20.468Z,8.23
2022-11-25T04:22:23.648Z,7.87
2022-11-25T04:27:28.323Z,8.23
2022-11-25T04:37:34.561Z,7.13
2022-11-25T04:42:39.852Z,7.10
2022-11-25T04:47:43.754Z,6.53
2022-11-25T04:52:46.950Z,7.07
2022-11-25T04:57:51.706Z,6.73
2022-11-25T05:02:55.252Z,7.53
2022-11-25T05:07:58.548Z,8.00
2022-11-25T05:13:03.211Z,7.87
2022-11-25T05:23:09.505Z,7.63
2022-11-25T05:28:14.178Z,8.10
2022-11-25T05:38:20.348Z,9.27
2022-11-25T05:43:25.103Z,7.23
2022-11-25T05:53:31.775Z,7.53
2022-11-25T05:58:36.307Z,7.00
2022-11-25T06:08:43.297Z,7.30
2022-11-25T06:13:47.915Z,6.57
2022-11-25T06:23:54.269Z,7.27
2022-11-25T06:28:58.961Z,6.47
2022-11-25T06:39:05.328Z,9.30
2022-11-25T06:44:09.861Z,8.13
2022-11-25T06:49:13.065Z,7.30
2022-11-25T06:54:16.384Z,7.57
2022-11-25T06:59:21.392Z,9.57
2022-11-25T07:04:24.759Z,5.60
2022-11-25T07:09:29.363Z,6.15
2022-11-25T07:14:34.291Z,6.47
2022-11-25T07:19:38.324Z,5.85
2022-11-25T07:24:41.542Z,7.23
2022-11-25T07:30:18.785Z,5.50
2022-11-25T07:35:09.737Z,6.10
2022-11-25T07:40:14.333Z,5.63
2022-11-25T07:45:18.982Z,5.93
2022-11-25T07:50:22.499Z,5.68
2022-11-25T07:55:25.789Z,4.68
2022-11-25T08:00:30.497Z,5.40
2022-11-25T08:05:34.796Z,4.78
2022-11-25T08:10:41.284Z,5.40
2022-11-25T08:15:46.195Z,4.88
2022-11-25T08:20:49.443Z,4.88
2022-11-25T08:25:52.629Z,5.38
2022-11-25T08:31:03.400Z,5.55
2022-11-25T08:36:07.697Z,4.68
2022-11-25T08:41:13.421Z,4.63
2022-11-25T08:46:21.444Z,5.50
2022-11-25T08:51:26.901Z,4.93
2022-11-25T08:56:30.464Z,4.72
2022-11-25T09:01:35.106Z,4.70
2022-11-25T09:11:43.623Z,4.70
2022-11-25T09:16:48.382Z,5.97
2022-11-25T09:26:54.985Z,5.38
2022-11-25T09:31:59.816Z,5.20
2022-11-25T09:37:03.208Z,5.10
2022-11-25T09:42:42.231Z,5.35
2022-11-25T09:47:57.812Z,5.20
2022-11-25T09:53:12.750Z,5.18
2022-11-25T09:58:27.093Z,4.57
2022-11-25T10:03:37.973Z,4.97
2022-11-25T10:08:45.014Z,5.03
2022-11-25T10:13:56.199Z,6.33
2022-11-25T10:19:06.663Z,5.80
2022-11-25T10:24:14.716Z,4.90
2022-11-25T10:29:24.801Z,4.67
2022-11-25T10:34:37.125Z,5.10
2022-11-25T10:39:41.271Z,5.40
2022-11-25T10:44:44.441Z,5.03
2022-11-25T10:50:01.339Z,5.27
2022-11-25T10:55:14.649Z,5.07
2022-11-25T11:00:36.467Z,4.88
2022-11-25T11:05:47.100Z,5.00
2022-11-25T11:11:14.393Z,4.90
2022-11-25T11:16:30.870Z,4.40
2022-11-25T11:21:37.842Z,4.40
2022-11-25T11:26:41.148Z,3.70
2022-11-25T11:31:49.808Z,3.40
2022-11-25T11:37:16.482Z,2.83
2022-11-25T11:42:31.127Z,3.40
2022-11-25T11:47:42.405Z,3.20
2022-11-25T11:52:56.204Z,3.13
2022-11-25T11:58:06.829Z,2.40
2022-11-25T12:03:15.896Z,2.23
2022-11-25T12:08:29.330Z,2.50
2022-11-25T12:13:41.754Z,2.00
2022-11-25T12:18:51.351Z,2.77
2022-11-25T12:24:04.344Z,3.30
2022-11-25T12:29:12.561Z,3.23
2022-11-25T12:34:27.741Z,3.23
2022-11-25T12:39:41.068Z,2.75
2022-11-25T12:44:56.373Z,2.70
2022-11-25T12:50:00.625Z,3.20
2022-11-25T12:55:16.509Z,3.00
2022-11-25T13:00:40.985Z,2.83
2022-11-25T13:06:06.057Z,3.23
2022-11-25T13:11:39.949Z,3.00
2022-11-25T13:16:47.253Z,3.27
2022-11-25T13:22:02.636Z,3.33
2022-11-25T13:27:27.610Z,3.70
2022-11-25T13:32:35.725Z,3.55
2022-11-25T13:37:41.985Z,3.67
2022-11-25T13:42:46.866Z,4.00
2022-11-25T13:47:51.612Z,4.10
2022-11-25T13:58:20.905Z,4.03
2022-11-25T14:03:50.552Z,4.40
2022-11-25T14:08:57.399Z,3.97
2022-11-25T14:14:30.676Z,4.53
2022-11-25T14:20:13.618Z,3.80
2022-11-25T14:25:22.551Z,3.80
2022-11-25T14:30:29.951Z,4.10
2022-11-25T14:35:44.873Z,3.83
2022-11-25T14:40:55.465Z,3.57
2022-11-25T14:46:15.731Z,3.83
2022-11-25T14:51:19.586Z,4.05
2022-11-25T14:56:30.646Z,3.58
2022-11-25T15:01:37.129Z,3.03
2022-11-25T15:06:43.008Z,2.97
2022-11-25T15:11:46.668Z,2.67
2022-11-25T15:16:51.768Z,3.60
2022-11-25T15:22:23.219Z,3.83
2022-11-25T15:27:25.926Z,3.03
2022-11-25T15:32:32.918Z,3.37
2022-11-25T15:37:36.205Z,3.13
2022-11-25T15:42:39.418Z,2.75
2022-11-25T15:47:46.295Z,3.10
2022-11-25T15:52:52.824Z,2.80
2022-11-25T15:57:59.591Z,2.90
2022-11-25T16:03:05.019Z,3.00
2022-11-25T16:08:29.077Z,3.10
2022-11-25T16:13:35.792Z,2.93
2022-11-25T16:18:43.914Z,3.00
2022-11-25T16:23:51.194Z,2.83
2022-11-25T16:28:57.253Z,3.10
2022-11-25T16:34:11.048Z,2.63
2022-11-25T16:39:15.145Z,2.95
2022-11-25T16:44:21.522Z,3.15
2022-11-25T16:49:26.895Z,3.40
2022-11-25T16:54:31.767Z,2.90
2022-11-25T16:59:41.198Z,3.33
2022-11-25T17:04:46.134Z,3.90
2022-11-25T17:09:49.866Z,3.70
2022-11-25T17:14:55.680Z,4.13
2022-11-25T17:20:00.642Z,4.13
2022-11-25T17:25:04.633Z,4.47
2022-11-25T17:30:15.826Z,4.05
2022-11-25T17:35:22.149Z,4.80
2022-11-25T17:40:25.676Z,4.50
2022-11-25T17:45:29.733Z,4.23
2022-11-25T17:50:36.235Z,5.13
2022-11-25T17:55:42.006Z,5.18
2022-11-25T18:00:45.718Z,4.10
2022-11-25T18:05:50.855Z,4.10
2022-11-25T18:10:54.379Z,4.37
2022-11-25T18:15:57.730Z,3.88
2022-11-25T18:21:02.529Z,4.20
2022-11-25T18:26:07.655Z,3.77
2022-11-25T18:31:13.352Z,4.70
2022-11-25T18:36:19.300Z,3.93
2022-11-25T18:41:23.423Z,3.83
2022-11-25T18:46:26.957Z,4.20
2022-11-25T18:51:31.813Z,3.63
2022-11-25T18:56:36.205Z,4.37
2022-11-25T19:01:39.880Z,4.00
2022-11-25T19:06:44.727Z,3.97
2022-11-25T19:16:54.974Z,4.10
2022-11-25T19:22:02.359Z,4.00
2022-11-25T19:27:06.137Z,4.10
2022-11-25T19:32:18.685Z,4.00
2022-11-25T19:37:24.206Z,4.93
2022-11-25T19:42:28.664Z,3.65
2022-11-25T19:47:32.249Z,4.20
2022-11-25T19:52:40.032Z,4.23
2022-11-25T19:57:44.515Z,4.10
2022-11-25T20:02:50.216Z,4.40
2022-11-25T20:07:55.177Z,4.47
2022-11-25T20:12:59.394Z,4.23
2022-11-25T20:18:02.818Z,4.25
2022-11-25T20:23:13.541Z,4.40
2022-11-25T20:28:18.711Z,3.73
2022-11-25T20:33:24.857Z,3.72
2022-11-25T20:38:32.752Z,4.13
2022-11-25T20:43:38.984Z,3.80
2022-11-25T20:48:42.627Z,4.60
2022-11-25T20:53:49.850Z,3.77
2022-11-25T20:58:53.285Z,4.23
2022-11-25T21:03:56.589Z,4.27
2022-11-25T21:09:02.748Z,4.20
2022-11-25T21:14:13.424Z,4.53
2022-11-25T21:19:16.789Z,4.57
2022-11-25T21:24:31.658Z,4.70
2022-11-25T21:34:38.341Z,3.80
2022-11-25T21:39:43.712Z,4.30
2022-11-25T21:44:48.071Z,4.37
2022-11-25T21:49:52.267Z,4.80
2022-11-25T21:54:56.914Z,4.25
2022-11-25T22:00:00.435Z,4.13
2022-11-25T22:05:03.646Z,4.10
2022-11-25T22:10:10.365Z,4.23
2022-11-25T22:15:17.472Z,4.60
2022-11-25T22:20:29.604Z,4.20
2022-11-25T22:25:34.673Z,4.50
2022-11-25T22:30:37.974Z,5.30
2022-11-25T22:35:41.669Z,4.67
2022-11-25T22:40:51.693Z,4.57
2022-11-25T22:45:55.268Z,4.90
2022-11-25T22:50:58.542Z,5.07
2022-11-25T22:56:03.081Z,4.97
2022-11-25T23:01:06.677Z,4.72
2022-11-25T23:06:11.968Z,4.63
2022-11-25T23:11:21.217Z,4.83
2022-11-25T23:16:24.479Z,4.57
2022-11-25T23:21:29.433Z,5.10
2022-11-25T23:26:35.285Z,4.97
2022-11-25T23:31:40.030Z,5.60
2022-11-25T23:41:50.429Z,5.63
2022-11-25T23:46:55.326Z,5.50
2022-11-25T23:52:07.258Z,5.27
2022-11-25T23:57:16.149Z,5.97
